createdAt,value
2018-04-11T00:02:24.647Z,12.80
2018-04-11T00:04:52.082Z,12.80
2018-04-11T00:07:20.334Z,12.70
2018-04-11T00:09:47.757Z,12.70
2018-04-11T00:12:15.224Z,12.70
2018-04-11T00:14:43.428Z,12.60
2018-04-11T00:17:10.864Z,12.50
2018-04-11T00:19:38.308Z,12.60
2018-04-11T00:22:05.744Z,12.60
2018-04-11T00:24:33.186Z,12.60
2018-04-11T00:27:01.397Z,12.80
2018-04-11T00:29:28.829Z,12.70
2018-04-11T00:31:56.266Z,12.80
2018-04-11T00:34:23.701Z,12.80
2018-04-11T00:36:51.912Z,12.90
2018-04-11T00:39:19.352Z,12.90
2018-04-11T00:41:46.771Z,12.90
2018-04-11T00:44:14.213Z,12.90
2018-04-11T00:46:41.652Z,12.90
2018-04-11T00:49:09.853Z,12.80
2018-04-11T00:51:37.286Z,12.80
2018-04-11T00:54:04.727Z,12.80
2018-04-11T00:56:32.174Z,12.80
2018-04-11T00:58:59.612Z,12.70
2018-04-11T01:01:27.051Z,12.80
2018-04-11T01:03:55.252Z,12.70
2018-04-11T01:06:22.685Z,12.60
2018-04-11T01:08:50.896Z,12.60
2018-04-11T01:11:18.330Z,12.60
2018-04-11T01:13:45.766Z,12.50
2018-04-11T01:16:13.988Z,12.30
2018-04-11T01:18:41.437Z,12.30
2018-04-11T01:21:08.917Z,12.20
2018-04-11T01:23:36.354Z,12.20
2018-04-11T01:26:04.356Z,12.10
2018-04-11T01:28:31.787Z,12.00
2018-04-11T01:30:59.235Z,12.00
2018-04-11T01:33:26.676Z,11.90
2018-04-11T01:35:54.110Z,11.90
2018-04-11T01:38:21.564Z,11.90
2018-04-11T01:40:49.751Z,11.80
2018-04-11T01:43:17.209Z,11.70
2018-04-11T01:45:44.630Z,11.70
2018-04-11T01:48:12.882Z,11.50
2018-04-11T01:50:40.303Z,11.50
2018-04-11T01:53:07.733Z,11.40
2018-04-11T01:55:35.176Z,11.40
2018-04-11T01:58:03.384Z,11.40
2018-04-11T02:00:30.833Z,11.30
2018-04-11T02:02:58.285Z,11.20
2018-04-11T02:05:25.721Z,11.10
2018-04-11T02:07:53.170Z,11.10
2018-04-11T02:10:21.374Z,11.00
2018-04-11T02:12:48.832Z,11.00
2018-04-11T02:15:16.256Z,10.90
2018-04-11T02:17:44.487Z,10.90
2018-04-11T02:20:11.914Z,10.80
2018-04-11T02:22:39.354Z,10.90
2018-04-11T02:25:06.807Z,10.80
2018-04-11T02:27:34.244Z,10.80
2018-04-11T02:30:02.465Z,10.60
2018-04-11T02:32:29.909Z,10.60
2018-04-11T02:34:57.357Z,10.60
2018-04-11T02:37:24.784Z,10.60
2018-04-11T02:39:52.993Z,10.70
2018-04-11T02:42:20.432Z,10.70
2018-04-11T02:44:47.936Z,10.70
2018-04-11T02:47:16.077Z,10.70
2018-04-11T02:49:43.528Z,10.70
2018-04-11T02:52:10.960Z,10.70
2018-04-11T02:54:39.169Z,10.60
2018-04-11T02:57:06.592Z,10.60
2018-04-11T02:59:34.808Z,10.50
2018-04-11T03:02:02.244Z,10.50
2018-04-11T03:04:29.689Z,10.40
2018-04-11T03:06:57.139Z,10.40
2018-04-11T03:09:25.401Z,10.30
2018-04-11T03:11:52.810Z,10.30
2018-04-11T03:14:20.248Z,10.30
2018-04-11T03:16:47.945Z,10.20
2018-04-11T03:19:15.384Z,10.20
2018-04-11T03:21:42.817Z,10.20
2018-04-11T03:24:10.260Z,10.10
2018-04-11T03:26:37.702Z,10.10
2018-04-11T03:29:05.912Z,10.00
2018-04-11T03:31:33.344Z,9.90
2018-04-11T03:34:00.777Z,9.90
2018-04-11T03:36:28.981Z,9.80
2018-04-11T03:38:56.408Z,9.80
2018-04-11T03:41:24.613Z,9.60
2018-04-11T03:43:52.068Z,9.60
2018-04-11T03:46:19.485Z,9.60
2018-04-11T03:48:47.701Z,9.40
2018-04-11T03:51:15.128Z,9.40
2018-04-11T03:53:43.338Z,9.50
2018-04-11T03:56:10.772Z,9.50
2018-04-11T03:58:38.196Z,9.50
2018-04-11T04:01:06.412Z,9.40
2018-04-11T04:03:33.921Z,9.40
2018-04-11T04:06:01.373Z,9.40
2018-04-11T04:08:28.792Z,9.50
2018-04-11T04:10:56.230Z,9.50
2018-04-11T04:13:35.442Z,9.40
2018-04-11T04:16:15.500Z,9.40
2018-04-11T04:18:55.014Z,9.40
2018-04-11T04:21:23.212Z,9.30
2018-04-11T04:23:50.656Z,9.30
2018-04-11T04:26:18.854Z,9.30
2018-04-11T04:28:46.291Z,9.30
2018-04-11T04:31:15.100Z,9.30
2018-04-11T04:33:42.525Z,9.30
2018-04-11T04:36:10.733Z,9.30
2018-04-11T04:38:38.168Z,9.30
2018-04-11T04:41:05.601Z,9.30
2018-04-11T04:43:33.876Z,9.20
2018-04-11T04:46:01.304Z,9.20
2018-04-11T04:48:29.909Z,9.10
2018-04-11T04:50:57.347Z,9.10
2018-04-11T04:53:24.786Z,9.10
2018-04-11T04:55:52.231Z,9.10
2018-04-11T04:58:19.656Z,9.10
2018-04-11T05:00:47.086Z,9.10
2018-04-11T05:03:15.277Z,9.10
2018-04-11T05:05:42.740Z,9.10
2018-04-11T05:08:10.185Z,9.10
2018-04-11T05:10:39.097Z,9.20
2018-04-11T05:13:06.512Z,9.20
2018-04-11T05:15:34.724Z,9.30
2018-04-11T05:18:02.163Z,9.30
2018-04-11T05:20:30.356Z,9.40
2018-04-11T05:22:57.804Z,9.40
2018-04-11T05:25:25.250Z,9.40
2018-04-11T05:27:52.690Z,9.40
2018-04-11T05:30:20.120Z,9.60
2018-04-11T05:32:47.610Z,9.60
2018-04-11T05:35:15.804Z,9.80
2018-04-11T05:37:43.238Z,9.80
2018-04-11T05:40:11.441Z,10.00
2018-04-11T05:42:38.881Z,10.00
2018-04-11T05:45:06.325Z,10.10
2018-04-11T05:47:34.532Z,10.30
2018-04-11T05:50:01.991Z,10.30
2018-04-11T05:52:29.433Z,10.50
2018-04-11T05:54:56.887Z,10.80
2018-04-11T05:57:24.332Z,11.00
2018-04-11T05:59:51.773Z,11.20
2018-04-11T06:02:19.977Z,11.50
2018-04-11T06:04:47.417Z,11.40
2018-04-11T06:07:14.852Z,11.40
2018-04-11T06:09:43.046Z,11.40
2018-04-11T06:12:10.484Z,11.40
2018-04-11T06:14:38.703Z,11.60
2018-04-11T06:17:06.139Z,11.60
2018-04-11T06:19:33.568Z,11.70
2018-04-11T06:22:01.777Z,12.10
2018-04-11T06:24:29.222Z,12.10
2018-04-11T06:26:56.660Z,12.30
2018-04-11T06:29:24.095Z,12.50
2018-04-11T06:31:51.533Z,12.70
2018-04-11T06:34:19.001Z,12.60
2018-04-11T06:36:46.444Z,12.50
2018-04-11T06:39:13.876Z,12.40
2018-04-11T06:41:41.322Z,12.40
2018-04-11T06:44:08.760Z,12.30
2018-04-11T06:46:36.884Z,12.40
2018-04-11T06:49:04.316Z,12.50
2018-04-11T06:51:31.771Z,12.50
2018-04-11T06:53:59.209Z,12.60
2018-04-11T06:56:26.644Z,12.70
2018-04-11T06:58:54.089Z,12.70
2018-04-11T07:01:22.276Z,12.70
2018-04-11T07:03:49.720Z,12.70
2018-04-11T07:06:17.932Z,12.80
2018-04-11T07:08:45.376Z,12.70
2018-04-11T07:11:12.816Z,12.80
2018-04-11T07:13:40.249Z,12.80
2018-04-11T07:16:08.451Z,12.90
2018-04-11T07:18:35.887Z,12.80
2018-04-11T07:21:04.096Z,13.00
2018-04-11T07:23:31.523Z,13.00
2018-04-11T07:25:58.982Z,13.10
2018-04-11T07:28:27.177Z,13.30
2018-04-11T07:30:54.617Z,13.30
2018-04-11T07:33:22.065Z,13.40
2018-04-11T07:35:50.269Z,13.50
2018-04-11T07:38:17.709Z,13.50
2018-04-11T07:40:45.133Z,13.70
2018-04-11T07:43:13.341Z,14.00
2018-04-11T07:45:40.775Z,14.00
2018-04-11T07:48:08.233Z,14.00
2018-04-11T07:50:35.664Z,14.00
2018-04-11T07:53:03.115Z,14.10
2018-04-11T07:55:30.550Z,14.20
2018-04-11T07:57:57.993Z,14.20
2018-04-11T08:00:25.433Z,14.40
2018-04-11T08:02:52.897Z,14.50
2018-04-11T08:05:20.314Z,14.60
2018-04-11T08:07:48.517Z,14.80
2018-04-11T08:10:15.951Z,14.70
2018-04-11T08:12:43.392Z,14.80
2018-04-11T08:15:11.594Z,15.00
2018-04-11T08:17:39.040Z,15.00
2018-04-11T08:20:06.477Z,15.10
2018-04-11T08:22:34.701Z,15.20
2018-04-11T08:25:02.142Z,15.20
2018-04-11T08:27:29.582Z,15.20
2018-04-11T08:29:57.043Z,15.30
2018-04-11T08:32:24.515Z,15.30
2018-04-11T08:34:51.949Z,15.30
2018-04-11T08:37:19.394Z,15.30
2018-04-11T08:39:47.648Z,15.50
2018-04-11T08:42:15.089Z,15.50
2018-04-11T08:44:42.520Z,15.60
2018-04-11T08:47:09.965Z,15.60
2018-04-11T08:49:37.408Z,15.80
2018-04-11T08:52:04.848Z,15.90
2018-04-11T08:54:33.137Z,16.20
2018-04-11T08:57:00.576Z,16.20
2018-04-11T08:59:28.781Z,16.50
2018-04-11T09:01:56.232Z,16.50
2018-04-11T09:04:23.709Z,16.80
2018-04-11T09:06:51.144Z,16.80
2018-04-11T09:09:18.583Z,16.80
2018-04-11T09:11:46.029Z,16.90
2018-04-11T09:14:14.241Z,17.10
2018-04-11T09:16:41.689Z,17.10
2018-04-11T09:19:09.139Z,17.20
2018-04-11T09:21:36.572Z,17.50
2018-04-11T09:24:04.025Z,17.80
2018-04-11T09:26:32.232Z,18.30
2018-04-11T09:28:59.680Z,18.30
2018-04-11T09:31:27.113Z,18.60
2018-04-11T09:33:54.563Z,19.00
2018-04-11T09:36:22.773Z,19.50
2018-04-11T09:38:50.214Z,19.50
2018-04-11T09:41:17.643Z,19.30
2018-04-11T09:43:45.866Z,18.70
2018-04-11T09:46:13.303Z,18.70
2018-04-11T09:48:40.754Z,18.60
2018-04-11T09:51:08.186Z,18.30
2018-04-11T09:53:37.324Z,18.10
2018-04-11T09:56:04.762Z,18.00
2018-04-11T09:58:32.215Z,17.90
2018-04-11T10:01:00.401Z,17.90
2018-04-11T10:03:27.837Z,17.90
2018-04-11T10:05:55.285Z,18.00
2018-04-11T10:08:22.728Z,18.00
2018-04-11T10:10:50.937Z,18.10
2018-04-11T10:13:18.387Z,18.00
2018-04-11T10:15:45.822Z,18.10
2018-04-11T10:18:14.040Z,18.40
2018-04-11T10:20:41.491Z,18.30
2018-04-11T10:23:08.949Z,18.40
2018-04-11T10:25:36.391Z,18.50
2018-04-11T10:28:03.850Z,18.60
2018-04-11T10:30:31.272Z,18.70
2018-04-11T10:32:59.480Z,18.80
2018-04-11T10:35:26.916Z,18.70
2018-04-11T10:37:54.894Z,18.70
2018-04-11T10:40:23.136Z,18.60
2018-04-11T10:42:51.342Z,18.50
2018-04-11T10:45:18.784Z,18.50
2018-04-11T10:47:46.212Z,18.80
2018-04-11T10:50:14.416Z,19.60
2018-04-11T10:52:41.864Z,19.60
2018-04-11T10:55:09.308Z,20.10
2018-04-11T10:57:37.521Z,20.40
2018-04-11T11:00:04.956Z,20.40
2018-04-11T11:02:32.395Z,20.20
2018-04-11T11:05:00.604Z,19.50
2018-04-11T11:07:29.128Z,19.50
2018-04-11T11:09:56.590Z,19.30
2018-04-11T11:12:24.021Z,19.00
2018-04-11T11:14:51.464Z,18.90
2018-04-11T11:17:18.922Z,19.00
2018-04-11T11:20:01.133Z,19.00
2018-04-11T11:22:28.583Z,19.10
2018-04-11T11:24:56.038Z,19.20
2018-04-11T11:27:23.477Z,19.60
2018-04-11T11:29:50.935Z,20.00
2018-04-11T11:32:18.410Z,20.70
2018-04-11T11:34:45.862Z,21.20
2018-04-11T11:37:13.304Z,21.40
2018-04-11T11:39:40.753Z,21.50
2018-04-11T11:42:08.211Z,21.40
2018-04-11T11:44:35.670Z,21.50
2018-04-11T11:47:03.117Z,21.30
2018-04-11T11:49:31.235Z,21.10
2018-04-11T11:51:58.721Z,21.10
2018-04-11T11:54:26.927Z,20.70
2018-04-11T11:56:54.361Z,20.70
2018-04-11T11:59:21.811Z,20.30
2018-04-11T12:01:50.030Z,19.70
2018-04-11T12:04:17.477Z,19.70
2018-04-11T12:06:44.912Z,19.40
2018-04-11T12:09:12.369Z,19.30
2018-04-11T12:11:39.941Z,19.30
2018-04-11T12:14:07.393Z,19.50
2018-04-11T12:16:34.848Z,19.60
2018-04-11T12:19:02.500Z,19.70
2018-04-11T12:21:29.954Z,19.60
2018-04-11T12:23:57.416Z,19.60
2018-04-11T12:26:25.292Z,19.50
2018-04-11T12:28:53.795Z,19.30
2018-04-11T12:31:21.221Z,19.30
2018-04-11T12:33:48.681Z,19.20
2018-04-11T12:36:16.113Z,19.20
2018-04-11T12:38:43.580Z,19.10
2018-04-11T12:41:11.023Z,19.00
2018-04-11T12:43:38.451Z,19.20
2018-04-11T12:46:07.096Z,19.80
2018-04-11T12:48:35.197Z,19.80
2018-04-11T12:51:02.651Z,20.00
2018-04-11T12:53:30.078Z,20.20
2018-04-11T12:55:57.524Z,20.40
2018-04-11T12:58:24.969Z,20.70
2018-04-11T13:00:52.413Z,20.90
2018-04-11T13:03:19.849Z,21.00
2018-04-11T13:05:48.079Z,21.00
2018-04-11T13:08:16.273Z,20.90
2018-04-11T13:10:43.715Z,20.90
2018-04-11T13:13:11.155Z,20.90
2018-04-11T13:15:38.608Z,20.90
2018-04-11T13:18:06.059Z,20.80
2018-04-11T13:20:33.502Z,20.80
2018-04-11T13:23:00.945Z,20.90
2018-04-11T13:25:28.376Z,21.20
2018-04-11T13:27:56.689Z,21.50
2018-04-11T13:30:24.112Z,21.50
2018-04-11T13:32:52.304Z,21.50
2018-04-11T13:35:19.746Z,21.50
2018-04-11T13:37:47.952Z,21.40
2018-04-11T13:40:15.395Z,21.40
2018-04-11T13:42:42.833Z,21.30
2018-04-11T13:45:11.041Z,20.90
2018-04-11T13:47:38.476Z,20.90
2018-04-11T13:50:05.917Z,20.90
2018-04-11T13:52:34.525Z,21.20
2018-04-11T13:55:01.980Z,21.20
2018-04-11T13:57:29.413Z,21.00
2018-04-11T13:59:57.621Z,20.70
2018-04-11T14:02:25.122Z,20.70
2018-04-11T14:04:52.552Z,20.70
2018-04-11T14:07:20.018Z,20.60
2018-04-11T14:09:47.449Z,20.40
2018-04-11T14:12:14.893Z,20.50
2018-04-11T14:14:42.332Z,20.40
2018-04-11T14:17:09.784Z,20.20
2018-04-11T14:19:37.256Z,20.00
2018-04-11T14:22:04.724Z,19.70
2018-04-11T14:24:32.170Z,19.70
2018-04-11T14:26:59.612Z,19.60
2018-04-11T14:29:27.066Z,19.80
2018-04-11T14:31:54.517Z,20.00
2018-04-11T14:34:21.950Z,20.20
2018-04-11T14:36:50.166Z,20.90
2018-04-11T14:39:17.607Z,20.90
2018-04-11T14:41:45.082Z,20.90
2018-04-11T14:44:12.521Z,21.00
2018-04-11T14:46:39.964Z,21.10
2018-04-11T14:49:07.418Z,21.20
2018-04-11T14:51:35.625Z,21.40
2018-04-11T14:54:03.072Z,21.40
2018-04-11T14:56:30.526Z,21.10
2018-04-11T14:58:57.969Z,20.80
2018-04-11T15:01:25.404Z,20.40
2018-04-11T15:03:53.608Z,19.80
2018-04-11T15:06:21.040Z,19.80
2018-04-11T15:08:50.166Z,19.10
2018-04-11T15:11:17.598Z,19.00
2018-04-11T15:13:45.029Z,18.90
2018-04-11T15:16:12.472Z,18.90
2018-04-11T15:18:39.905Z,18.90
2018-04-11T15:21:08.115Z,19.00
2018-04-11T15:23:35.548Z,19.00
2018-04-11T15:26:03.009Z,19.00
2018-04-11T15:28:30.449Z,19.00
2018-04-11T15:30:57.926Z,19.00
2018-04-11T15:33:26.113Z,19.10
2018-04-11T15:35:54.328Z,19.00
2018-04-11T15:38:22.276Z,19.10
2018-04-11T15:40:49.721Z,18.90
2018-04-11T15:43:18.418Z,18.40
2018-04-11T15:45:45.848Z,18.30
2018-04-11T15:48:14.050Z,18.00
2018-04-11T15:50:41.506Z,18.00
2018-04-11T15:53:09.690Z,17.60
2018-04-11T15:55:37.128Z,17.60
2018-04-11T15:58:04.599Z,17.50
2018-04-11T16:00:32.042Z,17.40
2018-04-11T16:03:00.241Z,17.30
2018-04-11T16:05:27.682Z,17.20
2018-04-11T16:07:55.119Z,17.30
2018-04-11T16:10:23.313Z,17.50
2018-04-11T16:12:50.776Z,17.40
2018-04-11T16:15:18.225Z,17.50
2018-04-11T16:17:45.664Z,17.60
2018-04-11T16:20:13.100Z,17.70
2018-04-11T16:22:41.313Z,17.70
2018-04-11T16:25:08.774Z,17.70
2018-04-11T16:27:36.208Z,17.60
2018-04-11T16:30:03.640Z,17.50
2018-04-11T16:32:31.846Z,17.20
2018-04-11T16:34:59.292Z,17.10
2018-04-11T16:37:27.493Z,17.10
2018-04-11T16:39:54.934Z,17.00
2018-04-11T16:42:22.388Z,17.00
2018-04-11T16:44:49.825Z,17.00
2018-04-11T16:47:18.039Z,17.00
2018-04-11T16:49:45.460Z,17.00
2018-04-11T16:52:12.964Z,17.00
2018-04-11T16:54:40.396Z,16.90
2018-04-11T16:57:08.783Z,16.80
2018-04-11T16:59:36.221Z,16.80
2018-04-11T17:02:03.652Z,16.70
2018-04-11T17:04:31.894Z,16.60
2018-04-11T17:06:59.337Z,16.60
2018-04-11T17:09:26.820Z,16.50
2018-04-11T17:11:54.293Z,16.50
2018-04-11T17:14:22.490Z,16.50
2018-04-11T17:16:49.947Z,16.50
2018-04-11T17:19:17.363Z,16.50
2018-04-11T17:21:57.309Z,16.30
2018-04-11T17:24:37.409Z,16.20
2018-04-11T17:30:19.268Z,16.10
2018-04-11T17:32:46.713Z,15.90
2018-04-11T17:35:14.149Z,15.80
2018-04-11T17:37:41.592Z,15.70
2018-04-11T17:40:09.026Z,15.70
2018-04-11T17:42:36.461Z,15.60
2018-04-11T17:45:04.668Z,15.50
2018-04-11T17:47:32.124Z,15.50
2018-04-11T17:49:59.550Z,15.40
2018-04-11T17:52:28.684Z,15.10
2018-04-11T17:54:56.132Z,15.10
2018-04-11T17:57:23.607Z,15.00
2018-04-11T17:59:51.050Z,14.90
2018-04-11T18:02:18.463Z,14.80
2018-04-11T18:04:46.675Z,14.60
2018-04-11T18:07:14.111Z,14.60
2018-04-11T18:09:42.535Z,14.50
2018-04-11T18:12:09.960Z,14.50
2018-04-11T18:14:37.401Z,14.40
2018-04-11T18:17:04.836Z,14.30
2018-04-11T18:19:33.057Z,14.10
2018-04-11T18:22:01.468Z,14.10
2018-04-11T18:24:28.892Z,14.10
2018-04-11T18:26:56.346Z,14.00
2018-04-11T18:29:23.787Z,13.90
2018-04-11T18:31:51.220Z,13.80
2018-04-11T18:34:18.735Z,13.70
2018-04-11T18:36:46.167Z,13.60
2018-04-11T18:39:13.608Z,13.50
2018-04-11T18:41:41.041Z,13.50
2018-04-11T18:44:09.259Z,13.40
2018-04-11T18:46:36.694Z,13.40
2018-04-11T18:49:04.138Z,13.30
2018-04-11T18:51:31.583Z,13.30
2018-04-11T18:53:59.783Z,13.20
2018-04-11T18:56:27.250Z,13.10
2018-04-11T18:58:54.682Z,13.10
2018-04-11T19:01:22.110Z,13.00
2018-04-11T19:03:50.325Z,12.90
2018-04-11T19:06:17.906Z,12.90
2018-04-11T19:08:45.366Z,12.90
2018-04-11T19:11:12.792Z,12.80
2018-04-11T19:13:40.257Z,12.80
2018-04-11T19:16:07.717Z,12.80
2018-04-11T19:18:35.149Z,12.70
2018-04-11T19:21:02.584Z,12.70
2018-04-11T19:23:30.793Z,12.70
2018-04-11T19:25:58.241Z,12.70
2018-04-11T19:28:25.700Z,12.70
2018-04-11T19:30:53.129Z,12.60
2018-04-11T19:33:21.332Z,12.60
2018-04-11T19:35:48.761Z,12.50
2018-04-11T19:38:16.205Z,12.60
2018-04-11T19:40:44.424Z,12.60
2018-04-11T19:43:11.864Z,12.50
2018-04-11T19:45:39.300Z,12.60
2018-04-11T19:48:06.756Z,12.60
2018-04-11T19:50:34.212Z,12.60
2018-04-11T19:53:01.661Z,12.60
2018-04-11T19:55:29.872Z,12.60
2018-04-11T19:57:57.309Z,12.50
2018-04-11T20:00:24.761Z,12.60
2018-04-11T20:02:52.229Z,12.60
2018-04-11T20:05:19.670Z,12.50
2018-04-11T20:07:47.127Z,12.50
2018-04-11T20:10:15.317Z,12.50
2018-04-11T20:12:42.769Z,12.50
2018-04-11T20:15:10.225Z,12.50
2018-04-11T20:17:37.668Z,12.50
2018-04-11T20:20:05.131Z,12.50
2018-04-11T20:22:32.569Z,12.40
2018-04-11T20:25:00.792Z,12.40
2018-04-11T20:27:28.240Z,12.30
2018-04-11T20:29:56.197Z,12.30
2018-04-11T20:32:23.639Z,12.30
2018-04-11T20:34:51.068Z,12.30
2018-04-11T20:37:19.284Z,12.20
2018-04-11T20:39:46.734Z,12.20
2018-04-11T20:42:14.160Z,12.20
2018-04-11T20:44:41.617Z,12.30
2018-04-11T20:47:09.829Z,12.30
2018-04-11T20:49:37.533Z,12.30
2018-04-11T20:52:04.968Z,12.30
2018-04-11T20:54:32.404Z,12.30
2018-04-11T20:56:59.852Z,12.10
2018-04-11T20:59:27.288Z,12.10
2018-04-11T21:01:54.722Z,12.10
2018-04-11T21:04:23.868Z,12.00
2018-04-11T21:06:51.284Z,12.00
2018-04-11T21:09:18.737Z,12.00
2018-04-11T21:11:47.685Z,12.00
2018-04-11T21:14:15.145Z,11.90
2018-04-11T21:16:42.609Z,12.00
2018-04-11T21:19:10.059Z,12.00
2018-04-11T21:21:37.482Z,11.90
2018-04-11T21:24:04.927Z,11.90
2018-04-11T21:26:32.372Z,11.90
2018-04-11T21:28:59.806Z,11.80
2018-04-11T21:31:28.010Z,11.70
2018-04-11T21:33:55.448Z,11.70
2018-04-11T21:36:22.889Z,11.60
2018-04-11T21:38:51.084Z,11.60
2018-04-11T21:41:18.555Z,11.50
2018-04-11T21:43:45.971Z,11.50
2018-04-11T21:46:14.192Z,11.50
2018-04-11T21:48:41.621Z,11.50
2018-04-11T21:51:09.068Z,11.50
2018-04-11T21:53:37.258Z,11.70
2018-04-11T21:56:05.526Z,11.70
2018-04-11T21:58:32.965Z,11.70
2018-04-11T22:01:01.177Z,11.70
2018-04-11T22:03:28.627Z,11.60
2018-04-11T22:05:56.080Z,11.60
2018-04-11T22:08:23.522Z,11.50
2018-04-11T22:10:50.966Z,11.50
2018-04-11T22:13:19.169Z,11.50
2018-04-11T22:15:46.608Z,11.50
2018-04-11T22:18:14.057Z,11.50
2018-04-11T22:20:41.517Z,11.50
2018-04-11T22:23:08.951Z,11.40
2018-04-11T22:25:36.377Z,11.50
2018-04-11T22:28:03.816Z,11.50
2018-04-11T22:30:31.252Z,11.50
2018-04-11T22:32:58.724Z,11.50
2018-04-11T22:35:26.156Z,11.50
2018-04-11T22:37:53.629Z,11.50
2018-04-11T22:40:21.076Z,11.50
2018-04-11T22:42:48.516Z,11.40
2018-04-11T22:45:15.960Z,11.30
2018-04-11T22:47:44.158Z,11.20
2018-04-11T22:50:11.607Z,11.20
2018-04-11T22:52:39.050Z,11.20
2018-04-11T22:55:07.261Z,11.10
2018-04-11T22:57:34.717Z,11.10
2018-04-11T23:00:02.168Z,11.10
2018-04-11T23:02:29.637Z,11.10
2018-04-11T23:04:57.083Z,11.00
2018-04-11T23:07:24.533Z,11.00
2018-04-11T23:09:51.981Z,11.00
2018-04-11T23:12:19.478Z,10.90
2018-04-11T23:14:46.904Z,10.90
2018-04-11T23:17:14.349Z,10.90
2018-04-11T23:19:41.781Z,10.80
2018-04-11T23:22:09.995Z,10.70
2018-04-11T23:24:37.421Z,10.70
2018-04-11T23:27:04.872Z,10.70
2018-04-11T23:29:32.308Z,10.70
2018-04-11T23:31:59.741Z,10.60
2018-04-11T23:34:27.193Z,10.60
2018-04-11T23:36:54.627Z,10.60
2018-04-11T23:39:22.077Z,10.60
2018-04-11T23:41:49.547Z,10.50
2018-04-11T23:44:16.984Z,10.50
2018-04-11T23:46:44.437Z,10.40
2018-04-11T23:49:12.615Z,10.40
2018-04-11T23:51:40.868Z,10.30
2018-04-11T23:54:08.320Z,10.30
2018-04-11T23:56:35.753Z,10.20
2018-04-11T23:59:03.964Z,10.20
